Time;durP1;ratioP1;P1;durP2;ratioP2;P2;SDS_P1;SDS_P2;PMS_P1;PMS_P2;Temp;Humidity;BMP_temperature;BMP_pressure;BME280_temperature;BME280_humidity;BME280_pressure;Samples;Min_cycle;Max_cycle;Signal;HPM_P1;HPM_P2
2023/10/07 00:02:12;;;;;;;12.47;11.23;;;9.10;99.90;;;;;;5025081;28;20287;-80
2023/10/07 00:04:40;;;;;;;13.07;11.80;;;9.10;99.90;;;;;;5015677;28;20244;-79
2023/10/07 00:07:10;;;;;;;12.47;11.17;;;9.00;99.90;;;;;;5019596;28;20223;-80
2023/10/07 00:09:41;;;;;;;12.20;11.00;;;9.00;99.90;;;;;;5020367;28;20204;-79
2023/10/07 00:12:13;;;;;;;13.03;11.70;;;8.90;99.90;;;;;;5027057;28;20678;-80
2023/10/07 00:14:43;;;;;;;12.43;11.13;;;8.90;99.90;;;;;;5019875;28;20220;-79
2023/10/07 00:17:16;;;;;;;13.17;11.87;;;8.80;99.90;;;;;;5022809;28;20288;-79
2023/10/07 00:19:44;;;;;;;12.93;11.57;;;8.80;99.90;;;;;;5016874;28;20200;-79
2023/10/07 00:22:13;;;;;;;13.33;11.93;;;8.70;99.90;;;;;;5024045;28;20207;-80
2023/10/07 00:24:43;;;;;;;13.40;11.73;;;8.70;99.90;;;;;;5032580;28;20216;-79
2023/10/07 00:27:22;;;;;;;11.73;10.73;;;8.70;99.90;;;;;;5018526;28;20216;-79
2023/10/07 00:29:59;;;;;;;12.37;11.07;;;8.50;99.90;;;;;;5029589;28;20234;-80
2023/10/07 00:32:31;;;;;;;12.47;11.17;;;8.50;99.90;;;;;;5020506;28;20199;-79
2023/10/07 00:35:00;;;;;;;13.43;11.67;;;8.40;99.90;;;;;;5024868;28;20211;-80
2023/10/07 00:37:29;;;;;;;12.90;11.13;;;8.40;99.90;;;;;;5033158;28;20283;-79
2023/10/07 00:40:00;;;;;;;11.67;10.67;;;8.40;99.90;;;;;;5018219;28;20200;-80
2023/10/07 00:42:28;;;;;;;12.40;10.70;;;8.40;99.90;;;;;;5020448;28;20254;-80
2023/10/07 00:44:56;;;;;;;11.63;10.27;;;8.30;99.90;;;;;;5014795;28;20287;-79
2023/10/07 00:47:26;;;;;;;12.73;11.33;;;8.30;99.90;;;;;;5017171;28;20590;-79
2023/10/07 00:49:54;;;;;;;12.27;11.07;;;8.30;99.90;;;;;;5020586;28;20718;-80
2023/10/07 00:52:32;;;;;;;12.60;11.40;;;8.20;99.90;;;;;;5018863;28;20200;-80
2023/10/07 00:55:08;;;;;;;12.47;11.13;;;8.20;99.90;;;;;;5018682;28;20683;-80
2023/10/07 00:57:36;;;;;;;12.17;11.00;;;8.10;99.90;;;;;;5021858;28;20246;-80
2023/10/07 01:00:30;;;;;;;12.43;11.23;;;8.10;99.90;;;;;;5019925;28;20201;-79
2023/10/07 01:03:12;;;;;;;12.07;10.73;;;8.00;99.90;;;;;;5023368;28;20221;-79
2023/10/07 01:05:44;;;;;;;12.10;10.97;;;8.00;99.90;;;;;;5023698;28;20223;-79
2023/10/07 01:08:12;;;;;;;12.33;11.17;;;8.00;99.90;;;;;;5022129;28;20231;-79
2023/10/07 01:10:46;;;;;;;12.77;11.57;;;7.90;99.90;;;;;;5025627;28;20218;-80
2023/10/07 01:13:29;;;;;;;12.67;11.33;;;7.90;99.90;;;;;;5025207;28;20771;-79
2023/10/07 01:15:59;;;;;;;12.13;10.87;;;7.90;99.90;;;;;;5026027;28;20690;-79
2023/10/07 01:18:27;;;;;;;13.50;11.63;;;7.90;99.90;;;;;;5022369;28;20203;-79
2023/10/07 01:21:11;;;;;;;12.50;11.30;;;7.80;99.90;;;;;;5025623;28;20235;-80
2023/10/07 01:23:44;;;;;;;12.93;11.67;;;7.70;99.90;;;;;;5027866;28;20782;-79
2023/10/07 01:26:16;;;;;;;12.43;11.13;;;7.60;99.90;;;;;;5022704;28;20220;-79
2023/10/07 01:28:43;;;;;;;12.97;11.67;;;7.50;99.90;;;;;;5030179;28;20229;-79
2023/10/07 01:31:12;;;;;;;13.40;11.43;;;7.50;99.90;;;;;;5039198;28;20230;-79
2023/10/07 01:33:45;;;;;;;12.40;11.20;;;7.50;99.90;;;;;;5038101;28;20218;-79
2023/10/07 01:36:16;;;;;;;13.03;11.63;;;7.50;99.90;;;;;;5030965;28;20203;-80
2023/10/07 01:38:48;;;;;;;12.70;11.40;;;7.50;99.90;;;;;;5026697;28;20616;-79
2023/10/07 01:41:18;;;;;;;12.90;11.70;;;7.40;99.90;;;;;;5021615;28;20208;-80
2023/10/07 01:43:56;;;;;;;13.20;11.90;;;7.40;99.90;;;;;;5031665;28;20231;-78
2023/10/07 01:46:27;;;;;;;12.73;11.43;;;7.40;99.90;;;;;;5021997;28;20621;-80
2023/10/07 01:48:57;;;;;;;13.43;12.10;;;7.40;99.90;;;;;;5022824;28;20218;-80
2023/10/07 01:51:26;;;;;;;13.43;11.77;;;7.50;99.90;;;;;;5022268;28;20207;-79
2023/10/07 01:53:56;;;;;;;12.87;11.57;;;7.40;99.90;;;;;;5021788;28;20262;-79
2023/10/07 01:56:26;;;;;;;13.10;11.80;;;7.40;99.90;;;;;;5019694;28;20234;-79
2023/10/07 01:58:54;;;;;;;12.80;11.50;;;7.50;99.90;;;;;;5018530;28;20211;-79
2023/10/07 02:01:22;;;;;;;13.03;11.43;;;7.50;99.90;;;;;;5022811;28;20199;-79
2023/10/07 02:03:50;;;;;;;12.83;11.53;;;7.60;99.90;;;;;;5019863;28;20226;-79
2023/10/07 02:06:19;;;;;;;13.17;11.87;;;7.60;99.90;;;;;;5026506;28;20249;-79
2023/10/07 02:08:46;;;;;;;12.30;11.20;;;7.70;99.90;;;;;;5024815;28;20675;-79
2023/10/07 02:11:17;;;;;;;11.70;10.60;;;7.80;99.90;;;;;;5023770;28;20634;-79
2023/10/07 02:13:46;;;;;;;12.50;11.20;;;7.80;99.90;;;;;;5019358;28;20702;-78
2023/10/07 02:16:16;;;;;;;13.37;11.97;;;7.80;99.90;;;;;;5021154;28;20187;-79
2023/10/07 02:18:47;;;;;;;12.77;11.67;;;7.90;99.90;;;;;;5023897;28;20647;-79
2023/10/07 02:21:16;;;;;;;12.80;11.60;;;7.90;99.90;;;;;;5020410;28;20207;-80
2023/10/07 02:23:44;;;;;;;11.57;10.47;;;7.90;99.90;;;;;;5021788;28;20214;-79
2023/10/07 02:26:16;;;;;;;13.17;11.87;;;7.90;99.90;;;;;;5018950;28;20567;-80
2023/10/07 02:28:45;;;;;;;12.33;11.13;;;7.90;99.90;;;;;;5022530;28;20204;-80
2023/10/07 02:31:16;;;;;;;11.87;10.80;;;7.90;99.90;;;;;;5018281;28;20218;-79
2023/10/07 02:33:45;;;;;;;12.50;11.47;;;7.90;99.90;;;;;;5028045;28;20223;-78
2023/10/07 02:36:21;;;;;;;13.27;11.30;;;7.90;99.90;;;;;;5025637;28;20221;-79
2023/10/07 02:38:52;;;;;;;11.90;10.90;;;7.90;99.90;;;;;;5025468;28;20210;-80
2023/10/07 02:41:20;;;;;;;12.50;11.30;;;7.80;99.90;;;;;;5025027;28;20290;-80
2023/10/07 02:43:49;;;;;;;13.20;11.67;;;7.80;99.90;;;;;;5024542;28;20254;-79
2023/10/07 02:46:31;;;;;;;12.50;11.40;;;7.80;99.90;;;;;;5023345;28;20707;-80
2023/10/07 02:49:05;;;;;;;13.27;12.07;;;7.70;99.90;;;;;;5024036;28;20250;-80
2023/10/07 02:51:33;;;;;;;12.73;11.43;;;7.50;99.90;;;;;;5019615;28;20207;-80
2023/10/07 02:54:06;;;;;;;12.93;11.73;;;7.40;99.90;;;;;;5021350;28;20632;-80
2023/10/07 02:56:44;;;;;;;13.00;11.60;;;7.40;99.90;;;;;;5023863;28;20190;-80
2023/10/07 02:59:29;;;;;;;13.17;11.90;;;7.30;99.90;;;;;;5022270;28;20194;-81
2023/10/07 03:02:26;;;;;;;13.80;12.00;;;7.30;99.90;;;;;;5018362;28;20195;-78
2023/10/07 03:05:12;;;;;;;14.03;11.60;;;7.20;99.90;;;;;;5020913;28;20276;-77
2023/10/07 03:07:42;;;;;;;12.20;11.10;;;7.20;99.90;;;;;;5028479;28;20648;-78
2023/10/07 03:10:16;;;;;;;12.57;11.27;;;7.20;99.90;;;;;;5030919;28;20229;-77
2023/10/07 03:12:47;;;;;;;12.20;11.10;;;7.20;99.90;;;;;;5024638;28;20286;-78
2023/10/07 03:15:29;;;;;;;12.60;11.40;;;7.10;99.90;;;;;;5025639;28;20601;-78
2023/10/07 03:17:56;;;;;;;12.27;10.83;;;7.10;99.90;;;;;;5030225;28;20210;-78
2023/10/07 03:20:30;;;;;;;13.97;11.70;;;7.00;99.90;;;;;;5028303;28;20654;-77
2023/10/07 03:23:14;;;;;;;12.40;11.20;;;7.00;99.90;;;;;;5029577;28;20220;-77
2023/10/07 03:26:05;;;;;;;12.20;11.10;;;7.00;99.90;;;;;;5019302;28;20653;-77
2023/10/07 03:28:35;;;;;;;11.97;10.87;;;7.00;99.90;;;;;;5021336;28;20191;-77
2023/10/07 03:31:08;;;;;;;12.17;11.07;;;6.90;99.90;;;;;;5028630;28;20203;-77
2023/10/07 03:33:44;;;;;;;13.80;11.73;;;6.90;99.90;;;;;;5030078;28;20228;-77
2023/10/07 03:36:30;;;;;;;13.10;11.83;;;6.90;99.90;;;;;;5031541;28;20196;-77
2023/10/07 03:39:10;;;;;;;13.37;12.00;;;6.90;99.90;;;;;;5021391;28;20275;-77
2023/10/07 03:41:37;;;;;;;12.87;11.67;;;7.00;99.90;;;;;;5027991;28;20256;-77
2023/10/07 03:44:05;;;;;;;12.43;11.13;;;7.00;99.90;;;;;;5029650;28;20274;-77
2023/10/07 03:46:34;;;;;;;12.43;11.13;;;7.20;99.90;;;;;;5031695;28;20216;-77
2023/10/07 03:49:01;;;;;;;11.90;10.90;;;7.20;99.90;;;;;;5033453;28;20733;-77
2023/10/07 03:51:30;;;;;;;12.07;10.97;;;7.20;99.90;;;;;;5028935;28;20217;-78
2023/10/07 03:54:00;;;;;;;12.50;11.30;;;7.30;99.90;;;;;;5024209;28;20712;-77
2023/10/07 03:56:27;;;;;;;12.23;11.13;;;7.30;99.90;;;;;;5031039;28;20185;-77
2023/10/07 03:58:55;;;;;;;13.00;11.27;;;7.30;99.90;;;;;;5030910;28;20197;-77
2023/10/07 04:01:26;;;;;;;12.33;11.33;;;7.30;99.90;;;;;;5028913;28;20201;-78
2023/10/07 04:03:59;;;;;;;11.70;10.53;;;7.30;99.90;;;;;;5030298;28;20276;-77
2023/10/07 04:06:30;;;;;;;13.17;11.87;;;7.30;99.90;;;;;;5023546;28;20217;-77
2023/10/07 04:09:05;;;;;;;12.20;11.00;;;7.30;99.90;;;;;;5031269;28;20288;-77
2023/10/07 04:11:33;;;;;;;11.70;10.70;;;7.20;99.90;;;;;;5031360;28;20263;-78
2023/10/07 04:14:07;;;;;;;12.60;11.27;;;7.20;99.90;;;;;;5026595;28;20730;-77
2023/10/07 04:16:34;;;;;;;11.93;10.83;;;7.10;99.90;;;;;;5013774;28;20281;-77
2023/10/07 04:19:29;;;;;;;12.87;11.67;;;7.00;99.90;;;;;;5024461;28;20291;-77
2023/10/07 04:21:55;;;;;;;12.97;11.57;;;7.10;99.90;;;;;;5022524;28;20252;-77
2023/10/07 04:24:24;;;;;;;12.87;11.57;;;7.00;99.90;;;;;;5016301;28;20331;-77
2023/10/07 04:26:54;;;;;;;13.03;11.57;;;7.00;99.90;;;;;;5019554;28;20211;-77
2023/10/07 04:29:24;;;;;;;12.40;11.20;;;6.90;99.90;;;;;;5013413;28;20281;-77
2023/10/07 04:31:52;;;;;;;12.20;10.90;;;6.90;99.90;;;;;;5016143;28;20282;-77
2023/10/07 04:34:21;;;;;;;14.30;11.10;;;6.80;99.90;;;;;;5021981;28;20224;-77
2023/10/07 04:37:11;;;;;;;13.10;11.80;;;6.70;99.90;;;;;;5025001;28;20201;-77
2023/10/07 04:39:38;;;;;;;12.87;11.43;;;6.70;99.90;;;;;;5033430;28;20586;-77
2023/10/07 04:42:05;;;;;;;12.73;11.53;;;6.70;99.90;;;;;;5023836;28;20205;-77
2023/10/07 04:47:36;;;;;;;12.33;11.03;;;6.70;99.90;;;;;;5025790;28;20221;-77
2023/10/07 04:50:08;;;;;;;11.93;10.63;;;6.70;99.90;;;;;;5021596;28;20205;-77
2023/10/07 04:52:40;;;;;;;12.13;11.03;;;6.80;99.90;;;;;;5027264;28;20201;-77
2023/10/07 04:55:11;;;;;;;13.30;11.13;;;6.80;99.90;;;;;;5024105;28;20198;-77
2023/10/07 04:57:44;;;;;;;12.73;11.63;;;6.80;99.90;;;;;;5035657;28;20245;-77
2023/10/07 05:00:27;;;;;;;11.73;10.73;;;6.90;99.90;;;;;;5017450;28;20588;-79
2023/10/07 05:02:57;;;;;;;11.40;10.30;;;6.90;99.90;;;;;;5023902;28;20223;-78
2023/10/07 05:05:25;;;;;;;11.83;10.60;;;6.90;99.90;;;;;;5021039;28;20195;-80
2023/10/07 05:07:56;;;;;;;12.10;10.97;;;6.90;99.90;;;;;;5023486;28;20221;-79
2023/10/07 05:10:24;;;;;;;11.57;10.57;;;6.90;99.90;;;;;;5029382;28;20236;-81
2023/10/07 05:12:55;;;;;;;11.33;10.43;;;6.80;99.90;;;;;;5028506;28;20218;-82
2023/10/07 05:15:21;;;;;;;12.07;11.07;;;6.70;99.90;;;;;;5035347;28;20209;-81
2023/10/07 05:17:52;;;;;;;11.97;10.87;;;6.70;99.90;;;;;;5039912;28;20216;-80
2023/10/07 05:20:27;;;;;;;11.40;10.30;;;6.70;99.90;;;;;;5039348;28;20756;-82
2023/10/07 05:23:00;;;;;;;12.73;11.53;;;6.70;99.90;;;;;;5039779;28;20221;-82
2023/10/07 05:25:27;;;;;;;11.10;10.10;;;6.70;99.90;;;;;;5036604;28;20197;-77
2023/10/07 05:27:55;;;;;;;11.77;10.67;;;6.70;99.90;;;;;;5024629;28;20719;-76
2023/10/07 05:30:23;;;;;;;12.60;11.50;;;6.70;99.90;;;;;;5027205;28;20284;-77
2023/10/07 05:32:50;;;;;;;11.50;10.50;;;6.70;99.90;;;;;;5033594;28;20227;-77
2023/10/07 05:35:18;;;;;;;11.50;10.53;;;6.80;99.90;;;;;;5030247;28;20224;-77
2023/10/07 05:37:46;;;;;;;11.27;10.27;;;6.80;99.90;;;;;;5027193;28;20249;-77
2023/10/07 05:40:16;;;;;;;11.30;10.30;;;6.80;99.90;;;;;;5022844;28;20238;-77
2023/10/07 05:42:43;;;;;;;11.70;10.80;;;6.70;99.90;;;;;;5022302;28;20214;-77
2023/10/07 05:45:12;;;;;;;11.83;10.83;;;6.70;99.90;;;;;;5031391;28;20198;-82
2023/10/07 05:47:39;;;;;;;12.90;11.70;;;6.70;99.90;;;;;;5041264;28;20237;-80
2023/10/07 05:50:08;;;;;;;12.30;11.20;;;6.70;99.90;;;;;;5036348;28;20208;-81
2023/10/07 05:52:35;;;;;;;13.57;12.27;;;6.70;99.90;;;;;;5033767;28;20198;-81
2023/10/07 05:55:02;;;;;;;16.03;11.97;;;6.70;99.90;;;;;;5039329;28;20225;-80
2023/10/07 05:57:30;;;;;;;12.47;11.27;;;6.70;99.90;;;;;;5036680;28;20573;-80
2023/10/07 05:59:58;;;;;;;12.93;11.73;;;6.70;99.90;;;;;;5028947;28;20402;-81
2023/10/07 06:02:26;;;;;;;11.63;10.53;;;6.70;99.90;;;;;;5033389;28;20650;-79
2023/10/07 06:04:53;;;;;;;11.70;10.60;;;6.80;99.90;;;;;;5037394;28;20205;-81
2023/10/07 06:07:21;;;;;;;12.17;11.07;;;6.90;99.90;;;;;;5028776;28;20607;-77
2023/10/07 06:09:48;;;;;;;11.10;10.20;;;6.90;99.90;;;;;;5032198;28;20202;-80
2023/10/07 06:12:15;;;;;;;11.80;10.80;;;7.00;99.90;;;;;;5037102;28;20193;-81
2023/10/07 06:14:48;;;;;;;11.97;10.97;;;7.10;99.90;;;;;;5037938;28;20226;-81
2023/10/07 06:17:15;;;;;;;11.37;10.37;;;7.20;99.90;;;;;;5037353;28;20198;-80
2023/10/07 06:19:43;;;;;;;11.50;10.47;;;7.30;99.90;;;;;;5031933;28;20205;-82
2023/10/07 06:22:12;;;;;;;11.10;10.17;;;7.50;99.90;;;;;;5029606;28;20274;-82
2023/10/07 06:24:41;;;;;;;11.20;10.23;;;7.70;99.90;;;;;;5039578;28;20209;-80
2023/10/07 06:27:11;;;;;;;11.23;10.27;;;7.80;99.90;;;;;;5038224;28;20564;-78
2023/10/07 06:29:43;;;;;;;11.00;10.00;;;8.00;99.90;;;;;;5038647;28;20209;-79
2023/10/07 06:32:22;;;;;;;11.27;10.23;;;8.00;99.90;;;;;;5036832;28;20723;-80
2023/10/07 06:34:51;;;;;;;10.57;9.77;;;8.10;99.90;;;;;;5029581;28;20218;-79
2023/10/07 06:37:26;;;;;;;11.30;10.37;;;8.20;99.90;;;;;;5026132;28;20204;-80
2023/10/07 06:39:57;;;;;;;10.53;9.77;;;8.30;99.90;;;;;;5036034;28;20285;-80
2023/10/07 06:42:24;;;;;;;11.13;10.10;;;8.40;99.90;;;;;;5034185;28;20632;-79
2023/10/07 06:44:54;;;;;;;10.47;9.73;;;8.50;99.90;;;;;;5021980;28;20284;-80
2023/10/07 06:47:24;;;;;;;10.80;9.80;;;8.60;99.90;;;;;;5028470;28;20596;-79
2023/10/07 06:49:52;;;;;;;10.40;9.60;;;8.70;99.90;;;;;;5029754;28;20313;-79
2023/10/07 06:52:20;;;;;;;12.60;11.30;;;8.80;99.90;;;;;;5027413;28;20203;-80
2023/10/07 06:54:48;;;;;;;13.03;11.80;;;8.90;99.90;;;;;;5032991;28;20671;-80
2023/10/07 06:57:17;;;;;;;12.73;11.60;;;9.10;99.90;;;;;;5034162;28;20192;-80
2023/10/07 06:59:45;;;;;;;13.47;12.17;;;9.40;99.90;;;;;;5039129;28;20199;-79
2023/10/07 07:02:18;;;;;;;12.50;11.30;;;9.70;99.90;;;;;;5033243;28;20200;-81
2023/10/07 07:04:47;;;;;;;12.83;11.73;;;10.00;99.90;;;;;;5029684;28;20216;-82
2023/10/07 07:07:16;;;;;;;12.53;11.23;;;10.30;99.90;;;;;;5036152;28;20210;-80
2023/10/07 07:09:50;;;;;;;14.13;11.63;;;10.70;99.90;;;;;;5027054;28;20660;-80
2023/10/07 07:12:18;;;;;;;9.23;5.87;;;10.80;99.90;;;;;;5018220;28;20196;-79
2023/10/07 07:14:50;;;;;;;8.53;7.00;;;11.10;99.90;;;;;;5016345;28;20218;-77
2023/10/07 07:17:30;;;;;;;11.10;10.10;;;11.20;99.90;;;;;;5017141;28;20209;-77
2023/10/07 07:22:46;;;;;;;12.53;8.77;;;11.70;99.90;;;;;;5011243;28;20228;-77
2023/10/07 07:25:19;;;;;;;10.50;7.23;;;12.00;99.90;;;;;;5021685;28;20203;-77
2023/10/07 07:27:47;;;;;;;10.60;9.57;;;12.50;99.90;;;;;;5015407;28;20216;-76
2023/10/07 07:30:19;;;;;;;15.50;8.80;;;12.90;99.90;;;;;;5016434;28;20607;-76
2023/10/07 07:32:55;;;;;;;10.87;8.07;;;13.30;99.90;;;;;;5013859;28;20326;-77
2023/10/07 07:35:37;;;;;;;9.60;6.30;;;13.70;99.90;;;;;;5014993;28;20302;-77
2023/10/07 07:38:05;;;;;;;9.90;5.53;;;14.10;99.90;;;;;;5022740;28;20196;-80
2023/10/07 07:40:37;;;;;;;7.93;5.97;;;14.40;99.90;;;;;;5025316;28;20205;-81
2023/10/07 07:43:07;;;;;;;9.33;6.97;;;14.60;99.90;;;;;;5029720;28;20281;-82
2023/10/07 07:45:36;;;;;;;8.07;6.77;;;15.00;99.90;;;;;;5033830;28;20231;-79
2023/10/07 07:48:06;;;;;;;9.37;7.70;;;15.40;99.90;;;;;;5026534;28;20335;-77
2023/10/07 07:50:39;;;;;;;10.00;8.97;;;15.60;99.90;;;;;;5025097;28;20200;-77
2023/10/07 07:53:07;;;;;;;9.77;5.63;;;16.00;99.90;;;;;;5014701;28;20231;-77
2023/10/07 07:55:37;;;;;;;12.10;9.87;;;16.40;99.90;;;;;;5016614;28;20246;-77
2023/10/07 07:58:04;;;;;;;11.30;10.30;;;16.80;99.90;;;;;;5016832;28;20231;-78
2023/10/07 08:00:40;;;;;;;8.30;7.00;;;17.40;99.90;;;;;;5017639;28;20206;-77
2023/10/07 08:03:07;;;;;;;9.03;7.63;;;17.70;99.90;;;;;;5016441;28;20276;-78
2023/10/07 08:05:39;;;;;;;8.10;5.00;;;17.10;99.90;;;;;;5013597;28;20200;-77
2023/10/07 08:08:18;;;;;;;8.20;7.40;;;16.50;99.90;;;;;;5021750;28;20302;-77
2023/10/07 08:10:48;;;;;;;11.33;8.07;;;16.10;99.90;;;;;;5041969;28;20212;-77
2023/10/07 08:13:23;;;;;;;8.50;5.23;;;15.60;99.90;;;;;;5025115;28;20216;-77
2023/10/07 08:15:51;;;;;;;11.03;8.37;;;15.50;99.90;;;;;;5020613;28;20203;-77
2023/10/07 08:18:22;;;;;;;7.73;4.83;;;15.50;99.90;;;;;;5026804;28;20188;-77
2023/10/07 08:20:56;;;;;;;8.50;6.63;;;15.60;99.90;;;;;;5020712;28;20718;-77
2023/10/07 08:23:28;;;;;;;7.90;5.10;;;16.10;99.90;;;;;;5020547;28;20265;-77
2023/10/07 08:26:06;;;;;;;7.97;5.23;;;16.50;99.90;;;;;;5022232;28;20200;-77
2023/10/07 08:28:42;;;;;;;10.67;8.13;;;16.70;99.90;;;;;;5022001;28;20215;-77
2023/10/07 08:31:19;;;;;;;6.90;5.07;;;16.60;99.90;;;;;;5022621;28;20659;-77
2023/10/07 08:33:53;;;;;;;9.73;8.67;;;16.80;99.90;;;;;;5023067;28;20721;-77
2023/10/07 08:36:29;;;;;;;8.57;7.70;;;16.80;99.90;;;;;;5022085;28;20206;-77
2023/10/07 08:38:58;;;;;;;8.07;6.77;;;17.50;99.90;;;;;;5023831;28;20200;-77
2023/10/07 08:41:28;;;;;;;7.83;6.93;;;18.20;99.90;;;;;;5017772;28;20203;-77
2023/10/07 08:44:06;;;;;;;10.10;8.73;;;18.50;99.90;;;;;;5019448;28;20228;-77
2023/10/07 08:46:37;;;;;;;10.30;9.30;;;18.50;99.90;;;;;;5021453;28;20674;-77
2023/10/07 08:49:10;;;;;;;6.87;5.37;;;18.50;99.90;;;;;;5021549;28;20223;-78
2023/10/07 08:51:41;;;;;;;6.90;4.90;;;18.50;99.90;;;;;;5022486;28;20669;-77
2023/10/07 08:54:11;;;;;;;9.87;5.47;;;18.50;99.90;;;;;;5033253;28;20268;-77
2023/10/07 08:56:41;;;;;;;7.30;4.93;;;18.40;99.90;;;;;;5021662;28;20207;-77
2023/10/07 08:59:08;;;;;;;7.87;5.23;;;18.30;99.90;;;;;;5019391;28;20194;-77
2023/10/07 09:01:36;;;;;;;8.33;5.30;;;18.20;99.90;;;;;;5016861;28;20642;-77
2023/10/07 09:04:07;;;;;;;9.50;7.27;;;18.10;99.90;;;;;;5020229;28;20702;-77
2023/10/07 09:06:37;;;;;;;9.27;4.60;;;18.10;99.90;;;;;;5018547;28;20290;-77
2023/10/07 09:09:06;;;;;;;10.17;9.20;;;18.30;99.90;;;;;;5032658;28;20221;-77
2023/10/07 09:11:36;;;;;;;10.47;9.33;;;18.60;99.90;;;;;;5022061;28;20208;-77
2023/10/07 09:14:07;;;;;;;8.40;5.07;;;18.60;99.90;;;;;;5020507;28;20276;-77
2023/10/07 09:16:34;;;;;;;6.70;4.40;;;18.50;99.90;;;;;;5029475;28;20672;-77
2023/10/07 09:19:10;;;;;;;9.90;9.03;;;18.50;99.90;;;;;;5017186;28;20660;-77
2023/10/07 09:21:38;;;;;;;6.93;4.90;;;18.50;99.90;;;;;;5024863;28;20201;-77
2023/10/07 09:24:13;;;;;;;7.13;4.80;;;18.40;99.90;;;;;;5032425;28;20223;-77
2023/10/07 09:26:56;;;;;;;8.17;5.07;;;18.40;99.90;;;;;;5033850;28;20225;-77
2023/10/07 09:29:25;;;;;;;9.33;4.97;;;18.50;99.90;;;;;;5025361;28;20626;-77
2023/10/07 09:31:56;;;;;;;10.83;9.17;;;18.90;99.90;;;;;;5029787;28;20230;-77
2023/10/07 09:34:41;;;;;;;10.13;9.13;;;19.20;99.90;;;;;;5021997;28;20223;-77
2023/10/07 09:37:12;;;;;;;7.10;6.27;;;19.30;99.90;;;;;;5027157;28;20662;-77
2023/10/07 09:39:45;;;;;;;8.20;7.40;;;19.60;99.90;;;;;;5016405;28;20263;-77
2023/10/07 09:42:36;;;;;;;8.77;8.03;;;19.70;99.90;;;;;;5025928;28;20212;-77
2023/10/07 09:45:17;;;;;;;8.23;4.80;;;19.80;99.90;;;;;;5014942;28;20247;-77
2023/10/07 09:47:44;;;;;;;8.03;7.03;;;19.90;99.90;;;;;;5013127;28;20212;-77
2023/10/07 09:50:19;;;;;;;7.23;5.10;;;20.10;99.90;;;;;;5021938;28;20266;-79
2023/10/07 09:52:56;;;;;;;5.70;4.30;;;20.20;99.90;;;;;;5040457;28;20273;-81
2023/10/07 09:55:40;;;;;;;6.60;4.50;;;20.20;99.90;;;;;;5032258;28;20197;-82
2023/10/07 09:58:36;;;;;;;8.17;5.40;;;20.30;99.90;;;;;;5045732;28;20580;-82
2023/10/07 10:01:36;;;;;;;6.90;5.80;;;20.40;99.90;;;;;;5023316;28;20266;-81
2023/10/07 10:04:19;;;;;;;6.80;4.23;;;20.50;99.90;;;;;;5025376;28;20220;-77
2023/10/07 10:07:00;;;;;;;6.30;4.30;;;20.60;99.90;;;;;;5029023;28;20437;-77
2023/10/07 10:09:29;;;;;;;6.73;5.27;;;20.50;99.90;;;;;;5023422;28;20213;-77
2023/10/07 10:12:18;;;;;;;6.90;6.20;;;20.40;99.90;;;;;;5020588;28;20434;-77
2023/10/07 10:15:09;;;;;;;4.78;4.13;;;20.40;99.90;;;;;;5028154;28;20433;-76
2023/10/07 10:17:39;;;;;;;5.77;3.77;;;20.50;99.90;;;;;;5025027;28;20290;-77
2023/10/07 10:20:12;;;;;;;6.07;4.03;;;20.50;99.90;;;;;;5023774;28;20192;-77
2023/10/07 10:22:49;;;;;;;5.97;3.90;;;20.60;99.90;;;;;;5023333;28;20204;-77
2023/10/07 10:25:36;;;;;;;7.27;4.27;;;20.80;99.90;;;;;;5030270;28;20199;-77
2023/10/07 10:28:07;;;;;;;7.17;4.23;;;20.90;99.90;;;;;;5041862;28;20230;-77
2023/10/07 10:30:45;;;;;;;7.97;5.80;;;20.90;99.90;;;;;;5028254;28;20278;-80
2023/10/07 10:33:19;;;;;;;8.27;7.57;;;21.00;99.90;;;;;;5030467;28;20227;-81
2023/10/07 10:35:51;;;;;;;6.13;4.00;;;20.90;99.90;;;;;;5051800;28;20218;-79
2023/10/07 10:38:19;;;;;;;5.23;3.90;;;20.90;99.90;;;;;;5038962;28;20721;-79
2023/10/07 10:40:46;;;;;;;6.93;4.53;;;21.00;99.90;;;;;;5032989;28;20200;-79
2023/10/07 10:43:24;;;;;;;6.63;3.80;;;21.00;99.90;;;;;;5033653;28;20254;-81
2023/10/07 10:46:01;;;;;;;5.60;4.10;;;20.90;99.90;;;;;;5032842;28;20208;-79
2023/10/07 10:48:29;;;;;;;5.93;4.17;;;20.90;99.90;;;;;;5025983;28;20676;-79
2023/10/07 10:50:56;;;;;;;8.80;8.10;;;21.00;99.90;;;;;;5024690;28;20202;-79
2023/10/07 10:53:23;;;;;;;8.80;7.97;;;21.20;99.90;;;;;;5035465;28;20215;-79
2023/10/07 10:55:56;;;;;;;8.60;7.80;;;21.30;99.90;;;;;;5029633;28;20196;-79
2023/10/07 10:58:24;;;;;;;5.23;3.77;;;21.40;99.90;;;;;;5029890;28;20201;-80
2023/10/07 11:00:52;;;;;;;8.73;7.83;;;21.50;99.90;;;;;;5032348;28;20197;-80
2023/10/07 11:03:20;;;;;;;5.67;3.60;;;21.60;99.90;;;;;;5041698;28;20326;-80
2023/10/07 11:05:48;;;;;;;4.67;3.40;;;21.70;99.90;;;;;;5039966;28;20220;-80
2023/10/07 11:08:22;;;;;;;6.63;3.60;;;21.70;99.90;;;;;;5040166;28;20203;-80
2023/10/07 11:10:51;;;;;;;9.00;8.30;;;21.70;99.90;;;;;;5043131;28;20212;-80
2023/10/07 11:13:19;;;;;;;3.83;3.27;;;21.80;99.90;;;;;;5039197;28;20667;-79
2023/10/07 11:15:58;;;;;;;5.80;4.33;;;21.80;99.90;;;;;;5039923;28;20268;-80
2023/10/07 11:18:30;;;;;;;4.87;3.50;;;21.80;99.90;;;;;;5036730;28;20222;-79
2023/10/07 11:20:57;;;;;;;7.20;4.30;;;21.90;99.90;;;;;;5041663;28;20192;-80
2023/10/07 11:23:27;;;;;;;9.37;8.57;;;21.90;99.90;;;;;;5032891;28;20216;-80
2023/10/07 11:25:55;;;;;;;9.10;8.30;;;21.80;99.90;;;;;;5031800;28;20214;-80
2023/10/07 11:28:23;;;;;;;8.47;7.73;;;21.80;99.90;;;;;;5030662;28;20188;-81
2023/10/07 11:30:51;;;;;;;5.53;4.00;;;21.80;99.90;;;;;;5033988;28;20223;-80
2023/10/07 11:33:20;;;;;;;6.33;4.03;;;21.70;99.90;;;;;;5027123;28;20224;-79
2023/10/07 11:36:00;;;;;;;5.53;4.20;;;21.60;99.90;;;;;;5022609;28;20573;-80
2023/10/07 11:38:27;;;;;;;4.87;3.73;;;21.50;99.90;;;;;;5028909;28;20202;-80
2023/10/07 11:40:55;;;;;;;6.30;5.03;;;21.50;99.90;;;;;;5023693;28;20663;-80
2023/10/07 11:43:22;;;;;;;6.37;4.10;;;21.60;99.90;;;;;;5031926;28;20311;-80
2023/10/07 11:45:50;;;;;;;5.13;3.60;;;21.60;99.90;;;;;;5018736;28;20242;-80
2023/10/07 11:48:19;;;;;;;4.90;3.60;;;21.70;99.90;;;;;;5024704;28;20196;-82
2023/10/07 11:50:47;;;;;;;5.13;3.67;;;21.80;99.90;;;;;;5031979;28;20252;-80
2023/10/07 11:53:13;;;;;;;5.40;3.63;;;22.00;99.90;;;;;;5023012;28;20215;-80
2023/10/07 11:55:40;;;;;;;7.60;7.00;;;22.00;99.90;;;;;;5031900;28;20203;-81
2023/10/07 11:58:08;;;;;;;8.47;7.67;;;22.00;99.90;;;;;;5038861;28;20191;-82
2023/10/07 12:00:35;;;;;;;8.60;7.80;;;22.00;99.90;;;;;;5032151;28;20199;-80
2023/10/07 12:03:07;;;;;;;8.60;7.90;;;22.00;99.90;;;;;;5026732;28;20273;-77
2023/10/07 12:05:38;;;;;;;8.55;7.85;;;21.90;99.90;;;;;;5026319;28;20441;-79
2023/10/07 12:08:11;;;;;;;8.60;7.80;;;21.80;99.90;;;;;;5033100;28;20630;-79
2023/10/07 12:10:39;;;;;;;8.83;8.13;;;21.80;99.90;;;;;;5023915;28;20699;-79
2023/10/07 12:13:11;;;;;;;8.57;7.70;;;21.80;99.90;;;;;;5030317;28;20287;-80
2023/10/07 12:15:39;;;;;;;9.00;8.20;;;21.70;99.90;;;;;;5031676;28;20204;-79
2023/10/07 12:18:07;;;;;;;8.53;7.73;;;21.70;99.90;;;;;;5030246;28;20204;-81
2023/10/07 12:20:34;;;;;;;8.57;7.83;;;21.80;99.90;;;;;;5029649;28;20220;-79
2023/10/07 12:23:02;;;;;;;8.43;7.73;;;21.80;99.90;;;;;;5022097;28;20220;-80
2023/10/07 12:25:32;;;;;;;8.20;7.57;;;21.90;99.90;;;;;;5032749;28;20188;-80
2023/10/07 12:27:58;;;;;;;8.30;7.70;;;22.00;99.90;;;;;;5033235;28;20310;-80
2023/10/07 12:30:26;;;;;;;8.80;8.00;;;22.00;99.90;;;;;;5028318;28;20213;-80
2023/10/07 12:32:53;;;;;;;8.90;8.20;;;21.90;99.90;;;;;;5031051;28;20232;-80
2023/10/07 12:35:21;;;;;;;8.70;7.90;;;21.90;99.90;;;;;;5032434;28;20197;-79
2023/10/07 12:37:48;;;;;;;8.50;7.80;;;21.90;99.90;;;;;;5031502;28;20840;-80
2023/10/07 12:40:17;;;;;;;8.87;8.07;;;21.80;99.90;;;;;;5028954;28;20211;-79
2023/10/07 12:42:46;;;;;;;8.07;7.43;;;21.80;99.90;;;;;;5035284;28;20302;-81
2023/10/07 12:45:13;;;;;;;8.80;7.90;;;21.70;99.90;;;;;;5028196;28;20204;-79
2023/10/07 12:47:44;;;;;;;6.70;6.00;;;21.60;99.90;;;;;;5030377;28;20196;-78
2023/10/07 12:50:24;;;;;;;8.53;7.83;;;21.70;99.90;;;;;;5020877;28;20251;-83
2023/10/07 12:52:52;;;;;;;8.55;7.85;;;21.70;99.90;;;;;;5019355;28;20430;-79
2023/10/07 12:55:19;;;;;;;6.88;6.38;;;21.80;99.90;;;;;;5025222;28;20821;-80
2023/10/07 12:57:49;;;;;;;4.10;3.33;;;21.90;99.90;;;;;;5019851;28;20208;-79
2023/10/07 13:00:22;;;;;;;7.20;6.60;;;22.00;99.90;;;;;;5028291;28;20223;-80
2023/10/07 13:02:49;;;;;;;4.77;3.33;;;22.10;99.90;;;;;;5025961;28;20581;-80
2023/10/07 13:05:19;;;;;;;3.97;3.20;;;22.10;99.90;;;;;;5023125;28;20242;-80
2023/10/07 13:07:46;;;;;;;4.33;3.10;;;22.10;99.90;;;;;;5026473;28;20647;-80
2023/10/07 13:10:13;;;;;;;4.23;3.23;;;22.10;99.90;;;;;;5022956;28;20258;-80